sensor_id;sensor_type;location;lat;lon;timestamp;pressure;altitude;pressure_sealevel;temperature;humidity
43115;BME280;28727;50.068;14.452;2023-02-24T00:02:24;98654.16;;;10.14;70.38
43115;BME280;28727;50.068;14.452;2023-02-24T00:04:55;98642.44;;;10.16;70.22
43115;BME280;28727;50.068;14.452;2023-02-24T00:07:27;98649.19;;;10.19;70.25
43115;BME280;28727;50.068;14.452;2023-02-24T00:10:00;98643.72;;;10.20;69.97
43115;BME280;28727;50.068;14.452;2023-02-24T00:12:33;98641.88;;;10.21;70.10
43115;BME280;28727;50.068;14.452;2023-02-24T00:15:05;98641.88;;;10.21;70.38
43115;BME280;28727;50.068;14.452;2023-02-24T00:17:37;98638.44;;;10.20;70.13
43115;BME280;28727;50.068;14.452;2023-02-24T00:20:09;98636.78;;;10.19;70.19
43115;BME280;28727;50.068;14.452;2023-02-24T00:22:44;98633.03;;;10.14;70.13
43115;BME280;28727;50.068;14.452;2023-02-24T00:25:16;98628.97;;;10.11;70.29
43115;BME280;28727;50.068;14.452;2023-02-24T00:27:48;98625.25;;;10.06;70.49
43115;BME280;28727;50.068;14.452;2023-02-24T00:30:20;98620.94;;;10.05;70.52
43115;BME280;28727;50.068;14.452;2023-02-24T00:32:56;98619.97;;;10.06;70.51
43115;BME280;28727;50.068;14.452;2023-02-24T00:35:34;98627.06;;;10.05;70.74
43115;BME280;28727;50.068;14.452;2023-02-24T00:38:06;98614.69;;;10.06;70.47
43115;BME280;28727;50.068;14.452;2023-02-24T00:40:37;98621.94;;;10.04;70.94
43115;BME280;28727;50.068;14.452;2023-02-24T00:43:11;98615.69;;;10.05;70.37
43115;BME280;28727;50.068;14.452;2023-02-24T00:45:43;98613.78;;;9.99;71.05
43115;BME280;28727;50.068;14.452;2023-02-24T00:48:15;98608.66;;;9.97;70.99
43115;BME280;28727;50.068;14.452;2023-02-24T00:50:46;98598.50;;;9.94;71.25
43115;BME280;28727;50.068;14.452;2023-02-24T00:53:18;98605.41;;;9.95;71.42
43115;BME280;28727;50.068;14.452;2023-02-24T00:55:58;98599.94;;;9.97;71.59
43115;BME280;28727;50.068;14.452;2023-02-24T00:58:30;98599.13;;;9.96;71.06
43115;BME280;28727;50.068;14.452;2023-02-24T01:01:03;98593.00;;;9.96;71.39
43115;BME280;28727;50.068;14.452;2023-02-24T01:03:36;98590.59;;;9.94;71.97
43115;BME280;28727;50.068;14.452;2023-02-24T01:06:08;98585.09;;;9.96;71.52
43115;BME280;28727;50.068;14.452;2023-02-24T01:08:41;98587.75;;;9.96;71.29
43115;BME280;28727;50.068;14.452;2023-02-24T01:11:22;98586.75;;;9.97;71.56
43115;BME280;28727;50.068;14.452;2023-02-24T01:14:15;98585.31;;;9.94;71.69
43115;BME280;28727;50.068;14.452;2023-02-24T01:16:47;98581.19;;;9.92;71.64
43115;BME280;28727;50.068;14.452;2023-02-24T01:19:24;98579.81;;;9.96;71.73
43115;BME280;28727;50.068;14.452;2023-02-24T01:22:05;98572.56;;;9.98;71.55
43115;BME280;28727;50.068;14.452;2023-02-24T01:24:40;98579.66;;;9.97;71.97
43115;BME280;28727;50.068;14.452;2023-02-24T01:27:14;98569.75;;;9.99;71.79
43115;BME280;28727;50.068;14.452;2023-02-24T01:29:50;98561.81;;;9.99;71.45
43115;BME280;28727;50.068;14.452;2023-02-24T01:32:21;98560.56;;;9.95;71.91
43115;BME280;28727;50.068;14.452;2023-02-24T01:34:54;98560.75;;;9.94;72.15
43115;BME280;28727;50.068;14.452;2023-02-24T01:37:27;98559.09;;;9.93;71.37
43115;BME280;28727;50.068;14.452;2023-02-24T01:40:01;98555.00;;;9.90;71.97
43115;BME280;28727;50.068;14.452;2023-02-24T01:42:41;98559.66;;;9.88;71.92
43115;BME280;28727;50.068;14.452;2023-02-24T01:45:17;98563.28;;;9.87;71.99
43115;BME280;28727;50.068;14.452;2023-02-24T01:47:50;98559.19;;;9.84;72.32
43115;BME280;28727;50.068;14.452;2023-02-24T01:50:24;98561.56;;;9.79;72.43
43115;BME280;28727;50.068;14.452;2023-02-24T01:52:59;98557.94;;;9.80;72.21
43115;BME280;28727;50.068;14.452;2023-02-24T01:55:53;98552.00;;;9.78;72.40
43115;BME280;28727;50.068;14.452;2023-02-24T01:58:27;98549.38;;;9.78;72.47
43115;BME280;28727;50.068;14.452;2023-02-24T02:01:00;98549.66;;;9.83;72.37
43115;BME280;28727;50.068;14.452;2023-02-24T02:03:40;98552.91;;;9.85;71.86
43115;BME280;28727;50.068;14.452;2023-02-24T02:06:15;98540.28;;;9.81;72.12
43115;BME280;28727;50.068;14.452;2023-02-24T02:08:48;98544.38;;;9.83;72.26
43115;BME280;28727;50.068;14.452;2023-02-24T02:11:20;98535.91;;;9.88;72.42
43115;BME280;28727;50.068;14.452;2023-02-24T02:13:53;98542.63;;;9.91;72.13
43115;BME280;28727;50.068;14.452;2023-02-24T02:19:19;98530.72;;;9.95;72.31
43115;BME280;28727;50.068;14.452;2023-02-24T02:39:47;98524.06;;;9.99;71.36
43115;BME280;28727;50.068;14.452;2023-02-24T02:42:43;98517.97;;;9.98;71.31
43115;BME280;28727;50.068;14.452;2023-02-24T02:45:26;98521.78;;;9.96;70.99
43115;BME280;28727;50.068;14.452;2023-02-24T02:48:04;98512.19;;;9.88;71.65
43115;BME280;28727;50.068;14.452;2023-02-24T02:50:53;98516.63;;;9.88;71.06
43115;BME280;28727;50.068;14.452;2023-02-24T02:56:47;98510.53;;;9.87;71.18
43115;BME280;28727;50.068;14.452;2023-02-24T02:59:25;98504.44;;;9.86;71.50
43115;BME280;28727;50.068;14.452;2023-02-24T03:02:00;98505.44;;;9.85;71.16
43115;BME280;28727;50.068;14.452;2023-02-24T03:04:48;98498.34;;;9.86;71.24
43115;BME280;28727;50.068;14.452;2023-02-24T03:07:25;98487.53;;;9.81;71.43
43115;BME280;28727;50.068;14.452;2023-02-24T03:10:07;98502.19;;;9.83;71.50
43115;BME280;28727;50.068;14.452;2023-02-24T03:12:51;98493.47;;;9.83;71.21
43115;BME280;28727;50.068;14.452;2023-02-24T03:15:25;98490.19;;;9.81;71.43
43115;BME280;28727;50.068;14.452;2023-02-24T03:18:05;98482.25;;;9.81;71.65
43115;BME280;28727;50.068;14.452;2023-02-24T03:20:45;98480.28;;;9.83;71.49
43115;BME280;28727;50.068;14.452;2023-02-24T03:23:25;98479.19;;;9.77;71.79
43115;BME280;28727;50.068;14.452;2023-02-24T03:26:16;98480.81;;;9.78;71.19
43115;BME280;28727;50.068;14.452;2023-02-24T03:34:08;98464.09;;;9.71;71.63
43115;BME280;28727;50.068;14.452;2023-02-24T03:36:40;98463.47;;;9.69;71.59
43115;BME280;28727;50.068;14.452;2023-02-24T03:39:14;98466.91;;;9.70;71.29
43115;BME280;28727;50.068;14.452;2023-02-24T03:42:13;98456.81;;;9.73;71.60
43115;BME280;28727;50.068;14.452;2023-02-24T03:44:48;98461.72;;;9.76;71.64
43115;BME280;28727;50.068;14.452;2023-02-24T03:47:20;98455.25;;;9.79;71.68
43115;BME280;28727;50.068;14.452;2023-02-24T03:49:53;98450.63;;;9.81;71.60
43115;BME280;28727;50.068;14.452;2023-02-24T03:52:42;98458.09;;;9.77;71.58
43115;BME280;28727;50.068;14.452;2023-02-24T03:58:23;98447.91;;;9.74;71.57
43115;BME280;28727;50.068;14.452;2023-02-24T04:01:03;98449.53;;;9.75;71.40
43115;BME280;28727;50.068;14.452;2023-02-24T04:04:02;98449.34;;;9.77;71.59
43115;BME280;28727;50.068;14.452;2023-02-24T04:06:51;98446.72;;;9.77;71.57
43115;BME280;28727;50.068;14.452;2023-02-24T04:09:48;98442.63;;;9.74;71.52
43115;BME280;28727;50.068;14.452;2023-02-24T04:12:49;98437.53;;;9.73;71.43
43115;BME280;28727;50.068;14.452;2023-02-24T04:15:40;98434.28;;;9.71;71.25
43115;BME280;28727;50.068;14.452;2023-02-24T04:18:21;98444.19;;;9.69;71.44
43115;BME280;28727;50.068;14.452;2023-02-24T04:20:56;98442.38;;;9.69;71.49
43115;BME280;28727;50.068;14.452;2023-02-24T04:23:34;98441.72;;;9.67;71.35
43115;BME280;28727;50.068;14.452;2023-02-24T04:26:11;98444.34;;;9.67;71.73
43115;BME280;28727;50.068;14.452;2023-02-24T04:28:45;98442.38;;;9.69;71.21
43115;BME280;28727;50.068;14.452;2023-02-24T04:31:20;98449.47;;;9.69;71.90
43115;BME280;28727;50.068;14.452;2023-02-24T04:33:54;98442.38;;;9.69;71.54
43115;BME280;28727;50.068;14.452;2023-02-24T04:36:35;98438.91;;;9.69;71.83
43115;BME280;28727;50.068;14.452;2023-02-24T04:39:09;98446.81;;;9.69;71.81
43115;BME280;28727;50.068;14.452;2023-02-24T04:41:42;98442.19;;;9.71;71.68
43115;BME280;28727;50.068;14.452;2023-02-24T04:44:18;98427.19;;;9.71;71.60
43115;BME280;28727;50.068;14.452;2023-02-24T04:46:51;98429.00;;;9.71;71.27
43115;BME280;28727;50.068;14.452;2023-02-24T04:49:23;98426.38;;;9.71;71.48
43115;BME280;28727;50.068;14.452;2023-02-24T04:51:55;98423.34;;;9.74;71.86
43115;BME280;28727;50.068;14.452;2023-02-24T04:54:27;98420.53;;;9.75;71.36
43115;BME280;28727;50.068;14.452;2023-02-24T04:57:00;98415.81;;;9.71;71.26
43115;BME280;28727;50.068;14.452;2023-02-24T04:59:32;98412.38;;;9.70;71.42
43115;BME280;28727;50.068;14.452;2023-02-24T05:02:07;98414.00;;;9.71;71.64
43115;BME280;28727;50.068;14.452;2023-02-24T05:04:38;98406.28;;;9.70;71.63
43115;BME280;28727;50.068;14.452;2023-02-24T05:07:11;98407.09;;;9.70;71.77
43115;BME280;28727;50.068;14.452;2023-02-24T05:09:46;98400.19;;;9.69;71.36
43115;BME280;28727;50.068;14.452;2023-02-24T05:12:19;98407.28;;;9.69;71.60
43115;BME280;28727;50.068;14.452;2023-02-24T05:14:51;98407.28;;;9.69;71.86
43115;BME280;28727;50.068;14.452;2023-02-24T05:17:23;98404.81;;;9.67;71.38
43115;BME280;28727;50.068;14.452;2023-02-24T05:19:55;98403.16;;;9.66;71.78
43115;BME280;28727;50.068;14.452;2023-02-24T05:22:48;98394.47;;;9.66;71.46
43115;BME280;28727;50.068;14.452;2023-02-24T05:25:22;98394.47;;;9.66;71.40
43115;BME280;28727;50.068;14.452;2023-02-24T05:27:55;98391.44;;;9.69;71.26
43115;BME280;28727;50.068;14.452;2023-02-24T05:30:27;98397.72;;;9.68;71.45
43115;BME280;28727;50.068;14.452;2023-02-24T05:32:59;98400.19;;;9.69;71.81
43115;BME280;28727;50.068;14.452;2023-02-24T05:35:35;98390.28;;;9.71;71.51
43115;BME280;28727;50.068;14.452;2023-02-24T05:38:06;98393.34;;;9.75;71.76
43115;BME280;28727;50.068;14.452;2023-02-24T05:40:38;98388.88;;;9.75;71.36
43115;BME280;28727;50.068;14.452;2023-02-24T05:43:16;98383.78;;;9.74;71.39
43115;BME280;28727;50.068;14.452;2023-02-24T05:45:51;98369.34;;;9.70;71.39
43115;BME280;28727;50.068;14.452;2023-02-24T05:48:23;98373.38;;;9.66;71.07
43115;BME280;28727;50.068;14.452;2023-02-24T05:50:55;98370.47;;;9.61;71.96
43115;BME280;28727;50.068;14.452;2023-02-24T05:53:27;98365.66;;;9.64;71.69
43115;BME280;28727;50.068;14.452;2023-02-24T05:56:02;98375.19;;;9.65;71.74
43115;BME280;28727;50.068;14.452;2023-02-24T05:58:36;98367.06;;;9.67;71.62
43115;BME280;28727;50.068;14.452;2023-02-24T06:01:12;98362.63;;;9.67;71.89
43115;BME280;28727;50.068;14.452;2023-02-24T06:03:47;98364.91;;;9.70;71.92
43115;BME280;28727;50.068;14.452;2023-02-24T06:06:18;98362.88;;;9.72;71.77
43115;BME280;28727;50.068;14.452;2023-02-24T06:08:50;98365.72;;;9.71;71.75
43115;BME280;28727;50.068;14.452;2023-02-24T06:11:25;98369.91;;;9.65;71.72
43115;BME280;28727;50.068;14.452;2023-02-24T06:13:57;98363.00;;;9.64;71.74
43115;BME280;28727;50.068;14.452;2023-02-24T06:16:29;98374.38;;;9.65;71.75
43115;BME280;28727;50.068;14.452;2023-02-24T06:19:02;98365.66;;;9.64;71.92
43115;BME280;28727;50.068;14.452;2023-02-24T06:21:39;98365.66;;;9.64;71.78
43115;BME280;28727;50.068;14.452;2023-02-24T06:24:14;98361.38;;;9.63;71.74
43115;BME280;28727;50.068;14.452;2023-02-24T06:26:46;98355.53;;;9.68;71.81
43115;BME280;28727;50.068;14.452;2023-02-24T06:29:19;98356.53;;;9.67;71.81
43115;BME280;28727;50.068;14.452;2023-02-24T06:31:51;98349.19;;;9.62;72.46
43115;BME280;28727;50.068;14.452;2023-02-24T06:34:25;98353.06;;;9.66;71.89
43115;BME280;28727;50.068;14.452;2023-02-24T06:36:58;98359.16;;;9.67;71.67
43115;BME280;28727;50.068;14.452;2023-02-24T06:39:30;98354.72;;;9.67;71.98
43115;BME280;28727;50.068;14.452;2023-02-24T06:42:08;98352.28;;;9.66;72.33
43115;BME280;28727;50.068;14.452;2023-02-24T06:44:41;98341.97;;;9.71;71.98
43115;BME280;28727;50.068;14.452;2023-02-24T06:47:13;98345.69;;;9.76;71.56
43115;BME280;28727;50.068;14.452;2023-02-24T06:49:47;98341.03;;;9.78;71.92
43115;BME280;28727;50.068;14.452;2023-02-24T06:52:19;98344.47;;;9.79;71.80
43115;BME280;28727;50.068;14.452;2023-02-24T06:54:51;98338.03;;;9.81;71.38
43115;BME280;28727;50.068;14.452;2023-02-24T06:57:23;98331.09;;;9.80;71.69
43115;BME280;28727;50.068;14.452;2023-02-24T06:59:54;98334.19;;;9.84;71.47
43115;BME280;28727;50.068;14.452;2023-02-24T07:02:26;98329.53;;;9.86;71.38
43115;BME280;28727;50.068;14.452;2023-02-24T07:05:09;98328.53;;;9.87;71.07
43115;BME280;28727;50.068;14.452;2023-02-24T07:07:45;98326.31;;;9.91;70.88
43115;BME280;28727;50.068;14.452;2023-02-24T07:10:16;98326.53;;;9.89;71.01
43115;BME280;28727;50.068;14.452;2023-02-24T07:12:48;98329.59;;;9.93;71.15
43115;BME280;28727;50.068;14.452;2023-02-24T07:15:21;98329.22;;;9.96;71.20
43115;BME280;28727;50.068;14.452;2023-02-24T07:17:53;98329.03;;;9.97;70.72
43115;BME280;28727;50.068;14.452;2023-02-24T07:20:25;98332.47;;;9.98;71.33
43115;BME280;28727;50.068;14.452;2023-02-24T07:22:56;98331.84;;;9.96;70.96
43115;BME280;28727;50.068;14.452;2023-02-24T07:25:29;98330.41;;;9.93;71.15
43115;BME280;28727;50.068;14.452;2023-02-24T07:28:03;98328.59;;;9.94;71.48
43115;BME280;28727;50.068;14.452;2023-02-24T07:30:39;98321.69;;;9.93;71.47
43115;BME280;28727;50.068;14.452;2023-02-24T07:33:11;98326.38;;;9.97;71.44
43115;BME280;28727;50.068;14.452;2023-02-24T07:35:50;98321.28;;;9.96;71.28
43115;BME280;28727;50.068;14.452;2023-02-24T07:38:22;98304.91;;;10.00;71.51
43115;BME280;28727;50.068;14.452;2023-02-24T07:40:57;98309.44;;;10.06;71.30
43115;BME280;28727;50.068;14.452;2023-02-24T07:43:29;98309.94;;;10.16;70.94
43115;BME280;28727;50.068;14.452;2023-02-24T07:46:16;98300.19;;;10.17;70.89
43115;BME280;28727;50.068;14.452;2023-02-24T07:48:55;98303.50;;;10.25;70.67
43115;BME280;28727;50.068;14.452;2023-02-24T07:51:27;98288.72;;;10.31;70.24
43115;BME280;28727;50.068;14.452;2023-02-24T07:54:01;98298.13;;;10.40;69.89
43115;BME280;28727;50.068;14.452;2023-02-24T07:56:33;98286.97;;;10.45;69.58
43115;BME280;28727;50.068;14.452;2023-02-24T07:59:05;98285.38;;;10.50;69.29
43115;BME280;28727;50.068;14.452;2023-02-24T08:01:41;98278.63;;;10.76;68.90
43115;BME280;28727;50.068;14.452;2023-02-24T08:04:23;98276.88;;;10.96;67.45
43115;BME280;28727;50.068;14.452;2023-02-24T08:06:56;98273.06;;;11.05;67.41
43115;BME280;28727;50.068;14.452;2023-02-24T08:09:31;98274.91;;;11.11;67.22
43115;BME280;28727;50.068;14.452;2023-02-24T08:12:17;98270.03;;;11.15;66.95
43115;BME280;28727;50.068;14.452;2023-02-24T08:14:52;98268.16;;;11.08;66.97
43115;BME280;28727;50.068;14.452;2023-02-24T08:17:25;98271.81;;;11.07;66.98
43115;BME280;28727;50.068;14.452;2023-02-24T08:19:57;98272.84;;;11.00;67.08
43115;BME280;28727;50.068;14.452;2023-02-24T08:22:44;98265.50;;;10.95;66.95
43115;BME280;28727;50.068;14.452;2023-02-24T08:25:25;98268.13;;;10.89;66.88
43115;BME280;28727;50.068;14.452;2023-02-24T08:28:07;98266.50;;;10.88;66.76
43115;BME280;28727;50.068;14.452;2023-02-24T08:30:44;98267.09;;;10.90;66.19
43115;BME280;28727;50.068;14.452;2023-02-24T08:33:18;98256.97;;;10.93;65.95
43115;BME280;28727;50.068;14.452;2023-02-24T08:35:52;98256.47;;;11.31;65.50
43115;BME280;28727;50.068;14.452;2023-02-24T08:38:34;98243.28;;;11.57;64.38
43115;BME280;28727;50.068;14.452;2023-02-24T08:41:14;98244.91;;;11.58;63.49
43115;BME280;28727;50.068;14.452;2023-02-24T08:43:49;98246.09;;;11.49;63.20
43115;BME280;28727;50.068;14.452;2023-02-24T08:46:22;98246.31;;;11.41;63.44
43115;BME280;28727;50.068;14.452;2023-02-24T08:48:58;98231.25;;;11.35;62.87
43115;BME280;28727;50.068;14.452;2023-02-24T08:51:35;98236.31;;;11.23;62.93
43115;BME280;28727;50.068;14.452;2023-02-24T08:54:09;98237.50;;;11.14;63.04
43115;BME280;28727;50.068;14.452;2023-02-24T08:56:47;98238.09;;;11.09;63.18
43115;BME280;28727;50.068;14.452;2023-02-24T08:59:26;98235.66;;;11.08;62.78
43115;BME280;28727;50.068;14.452;2023-02-24T09:02:20;98226.91;;;11.07;62.60
43115;BME280;28727;50.068;14.452;2023-02-24T09:04:58;98231.19;;;11.15;62.58
43115;BME280;28727;50.068;14.452;2023-02-24T09:07:37;98226.56;;;11.37;62.33
43115;BME280;28727;50.068;14.452;2023-02-24T09:10:16;98217.66;;;11.71;60.98
43115;BME280;28727;50.068;14.452;2023-02-24T09:12:50;98219.47;;;12.10;62.47
43115;BME280;28727;50.068;14.452;2023-02-24T09:15:23;98211.78;;;12.66;59.81
43115;BME280;28727;50.068;14.452;2023-02-24T09:17:56;98210.41;;;13.39;58.13
43115;BME280;28727;50.068;14.452;2023-02-24T09:20:37;98200.97;;;14.36;56.10
43115;BME280;28727;50.068;14.452;2023-02-24T09:23:46;98189.63;;;15.55;52.27
43115;BME280;28727;50.068;14.452;2023-02-24T09:26:18;98191.16;;;16.09;48.93
43115;BME280;28727;50.068;14.452;2023-02-24T09:28:51;98192.06;;;16.15;47.70
43115;BME280;28727;50.068;14.452;2023-02-24T09:31:28;98183.75;;;15.88;48.28
43115;BME280;28727;50.068;14.452;2023-02-24T09:34:11;98187.56;;;15.27;48.60
43115;BME280;28727;50.068;14.452;2023-02-24T09:36:49;98186.19;;;14.95;48.18
43115;BME280;28727;50.068;14.452;2023-02-24T09:39:35;98177.59;;;14.45;48.98
43115;BME280;28727;50.068;14.452;2023-02-24T09:42:31;98178.34;;;14.09;49.80
43115;BME280;28727;50.068;14.452;2023-02-24T09:45:20;98181.44;;;13.87;49.63
43115;BME280;28727;50.068;14.452;2023-02-24T09:48:16;98170.34;;;13.72;50.33
43115;BME280;28727;50.068;14.452;2023-02-24T09:50:51;98178.88;;;13.99;50.09
43115;BME280;28727;50.068;14.452;2023-02-24T09:53:35;98167.19;;;14.43;49.62
43115;BME280;28727;50.068;14.452;2023-02-24T09:56:34;98161.69;;;14.74;48.47
43115;BME280;28727;50.068;14.452;2023-02-24T09:59:20;98151.00;;;14.93;47.17
43115;BME280;28727;50.068;14.452;2023-02-24T10:02:20;98157.84;;;14.89;46.34
43115;BME280;28727;50.068;14.452;2023-02-24T10:07:40;98137.44;;;15.12;46.34
43115;BME280;28727;50.068;14.452;2023-02-24T10:10:20;98138.50;;;15.23;45.60
43115;BME280;28727;50.068;14.452;2023-02-24T10:13:23;98132.88;;;15.43;44.91
43115;BME280;28727;50.068;14.452;2023-02-24T10:16:06;98141.59;;;15.85;44.92
43115;BME280;28727;50.068;14.452;2023-02-24T10:19:04;98133.22;;;16.16;43.57
43115;BME280;28727;50.068;14.452;2023-02-24T10:22:09;98122.13;;;15.73;43.09
43115;BME280;28727;50.068;14.452;2023-02-24T10:30:29;98111.22;;;15.39;43.57
43115;BME280;28727;50.068;14.452;2023-02-24T10:33:17;98113.00;;;15.80;42.38
43115;BME280;28727;50.068;14.452;2023-02-24T10:36:03;98097.25;;;16.02;41.78
43115;BME280;28727;50.068;14.452;2023-02-24T10:38:44;98091.97;;;16.30;41.21
43115;BME280;28727;50.068;14.452;2023-02-24T10:41:16;98090.53;;;16.39;40.36
43115;BME280;28727;50.068;14.452;2023-02-24T10:43:54;98076.69;;;16.14;39.93
43115;BME280;28727;50.068;14.452;2023-02-24T10:46:29;98067.44;;;16.17;40.01
43115;BME280;28727;50.068;14.452;2023-02-24T10:49:13;98061.09;;;16.74;40.37
43115;BME280;28727;50.068;14.452;2023-02-24T10:51:51;98054.84;;;17.14;38.97
43115;BME280;28727;50.068;14.452;2023-02-24T10:54:26;98056.72;;;16.68;37.75
43115;BME280;28727;50.068;14.452;2023-02-24T10:57:06;98054.28;;;15.87;37.06
43115;BME280;28727;50.068;14.452;2023-02-24T10:59:55;98060.22;;;15.31;37.57
43115;BME280;28727;50.068;14.452;2023-02-24T11:02:50;98056.19;;;14.87;38.94
43115;BME280;28727;50.068;14.452;2023-02-24T11:05:44;98055.88;;;14.35;39.62
43115;BME280;28727;50.068;14.452;2023-02-24T11:08:36;98058.88;;;13.90;40.40
43115;BME280;28727;50.068;14.452;2023-02-24T11:11:23;98054.38;;;13.55;41.39
43115;BME280;28727;50.068;14.452;2023-02-24T11:14:01;98041.81;;;13.25;41.75
43115;BME280;28727;50.068;14.452;2023-02-24T11:16:53;98037.13;;;13.21;42.95
43115;BME280;28727;50.068;14.452;2023-02-24T11:20:47;98028.09;;;13.28;42.92
43115;BME280;28727;50.068;14.452;2023-02-24T11:22:53;98028.25;;;13.33;43.42
43115;BME280;28727;50.068;14.452;2023-02-24T11:34:32;97989.78;;;13.24;43.29
43115;BME280;28727;50.068;14.452;2023-02-24T11:42:43;97983.31;;;13.38;43.56
43115;BME280;28727;50.068;14.452;2023-02-24T11:48:35;97968.06;;;13.34;42.68
43115;BME280;28727;50.068;14.452;2023-02-24T11:53:52;97959.25;;;12.90;42.79
43115;BME280;28727;50.068;14.452;2023-02-24T11:56:29;97953.22;;;12.83;43.05
43115;BME280;28727;50.068;14.452;2023-02-24T12:02:26;97944.94;;;12.73;43.87
43115;BME280;28727;50.068;14.452;2023-02-24T12:05:15;97948.03;;;12.70;43.63
43115;BME280;28727;50.068;14.452;2023-02-24T12:08:01;97942.03;;;12.81;44.30
43115;BME280;28727;50.068;14.452;2023-02-24T12:10:38;97939.94;;;12.90;43.89
43115;BME280;28727;50.068;14.452;2023-02-24T12:18:43;97920.13;;;13.10;44.28
43115;BME280;28727;50.068;14.452;2023-02-24T12:21:21;97925.88;;;13.07;44.06
43115;BME280;28727;50.068;14.452;2023-02-24T12:23:56;97920.19;;;13.04;43.41
43115;BME280;28727;50.068;14.452;2023-02-24T12:26:36;97925.97;;;12.76;43.98
43115;BME280;28727;50.068;14.452;2023-02-24T12:32:31;97915.06;;;12.41;45.62
43115;BME280;28727;50.068;14.452;2023-02-24T12:41:41;97901.06;;;12.03;47.83
43115;BME280;28727;50.068;14.452;2023-02-24T12:44:34;97891.13;;;11.98;48.04
43115;BME280;28727;50.068;14.452;2023-02-24T12:47:14;97892.63;;;12.19;48.16
43115;BME280;28727;50.068;14.452;2023-02-24T12:50:11;97873.75;;;12.34;48.07
43115;BME280;28727;50.068;14.452;2023-02-24T12:58:40;97836.09;;;13.11;46.80
43115;BME280;28727;50.068;14.452;2023-02-24T13:01:27;97839.44;;;13.43;45.69
43115;BME280;28727;50.068;14.452;2023-02-24T13:04:29;97841.91;;;13.38;44.65
43115;BME280;28727;50.068;14.452;2023-02-24T13:16:33;97825.22;;;13.01;43.83
43115;BME280;28727;50.068;14.452;2023-02-24T13:19:05;97827.06;;;12.82;44.20
43115;BME280;28727;50.068;14.452;2023-02-24T13:21:37;97826.53;;;12.73;44.82
43115;BME280;28727;50.068;14.452;2023-02-24T13:24:19;97813.28;;;12.73;45.33
43115;BME280;28727;50.068;14.452;2023-02-24T13:29:50;97814.22;;;12.43;46.17
43115;BME280;28727;50.068;14.452;2023-02-24T13:32:33;97812.00;;;12.40;46.36
43115;BME280;28727;50.068;14.452;2023-02-24T13:37:46;97796.06;;;12.21;46.94
43115;BME280;28727;50.068;14.452;2023-02-24T13:40:23;97793.88;;;12.18;46.80
43115;BME280;28727;50.068;14.452;2023-02-24T13:43:00;97795.09;;;12.16;47.06
43115;BME280;28727;50.068;14.452;2023-02-24T13:45:34;97794.50;;;12.14;46.68
43115;BME280;28727;50.068;14.452;2023-02-24T13:57:18;97770.16;;;12.05;45.62
43115;BME280;28727;50.068;14.452;2023-02-24T14:03:24;97765.00;;;12.10;44.18
43115;BME280;28727;50.068;14.452;2023-02-24T14:05:58;97762.97;;;12.12;44.42
43115;BME280;28727;50.068;14.452;2023-02-24T14:08:37;97758.50;;;12.13;43.82
43115;BME280;28727;50.068;14.452;2023-02-24T14:11:15;97756.66;;;12.13;43.34
43115;BME280;28727;50.068;14.452;2023-02-24T14:13:51;97749.59;;;12.07;43.08
43115;BME280;28727;50.068;14.452;2023-02-24T14:16:28;97761.81;;;12.02;43.25
43115;BME280;28727;50.068;14.452;2023-02-24T14:19:08;97751.53;;;11.94;42.73
43115;BME280;28727;50.068;14.452;2023-02-24T14:21:56;97740.94;;;11.94;42.74
43115;BME280;28727;50.068;14.452;2023-02-24T14:24:28;97742.50;;;12.01;43.19
43115;BME280;28727;50.068;14.452;2023-02-24T14:27:00;97736.16;;;12.02;43.17
43115;BME280;28727;50.068;14.452;2023-02-24T14:29:34;97731.31;;;11.99;42.88
43115;BME280;28727;50.068;14.452;2023-02-24T14:32:26;97740.00;;;12.06;43.02
43115;BME280;28727;50.068;14.452;2023-02-24T14:34:58;97730.06;;;12.02;43.28
43115;BME280;28727;50.068;14.452;2023-02-24T14:37:30;97725.88;;;11.94;43.15
43115;BME280;28727;50.068;14.452;2023-02-24T14:40:03;97721.81;;;11.92;43.47
43115;BME280;28727;50.068;14.452;2023-02-24T14:42:45;97719.38;;;11.90;43.65
43115;BME280;28727;50.068;14.452;2023-02-24T14:45:20;97711.28;;;11.85;43.20
43115;BME280;28727;50.068;14.452;2023-02-24T14:47:53;97713.13;;;11.84;43.53
43115;BME280;28727;50.068;14.452;2023-02-24T14:50:31;97704.16;;;11.85;43.85
43115;BME280;28727;50.068;14.452;2023-02-24T14:53:11;97705.63;;;11.81;43.52
43115;BME280;28727;50.068;14.452;2023-02-24T14:55:50;97707.13;;;11.71;43.75
43115;BME280;28727;50.068;14.452;2023-02-24T14:58:35;97703.72;;;11.64;44.10
43115;BME280;28727;50.068;14.452;2023-02-24T15:03:55;97696.91;;;11.49;44.81
43115;BME280;28727;50.068;14.452;2023-02-24T15:06:30;97699.78;;;11.48;44.88
43115;BME280;28727;50.068;14.452;2023-02-24T15:09:11;97696.53;;;11.46;45.01
43115;BME280;28727;50.068;14.452;2023-02-24T15:11:46;97683.50;;;11.44;45.15
43115;BME280;28727;50.068;14.452;2023-02-24T15:14:25;97681.72;;;11.38;45.57
43115;BME280;28727;50.068;14.452;2023-02-24T15:17:02;97681.72;;;11.38;45.50
43115;BME280;28727;50.068;14.452;2023-02-24T15:19:41;97669.16;;;11.34;45.55
43115;BME280;28727;50.068;14.452;2023-02-24T15:22:32;97660.88;;;11.30;45.95
43115;BME280;28727;50.068;14.452;2023-02-24T15:25:30;97660.22;;;11.35;45.98
43115;BME280;28727;50.068;14.452;2023-02-24T15:28:30;97656.59;;;11.29;46.25
43115;BME280;28727;50.068;14.452;2023-02-24T15:31:15;97649.47;;;11.30;46.19
43115;BME280;28727;50.068;14.452;2023-02-24T15:33:57;97652.31;;;11.28;46.50
43115;BME280;28727;50.068;14.452;2023-02-24T15:36:33;97649.06;;;11.26;46.61
43115;BME280;28727;50.068;14.452;2023-02-24T15:39:07;97642.41;;;11.24;46.80
43115;BME280;28727;50.068;14.452;2023-02-24T15:41:44;97636.97;;;11.19;47.13
43115;BME280;28727;50.068;14.452;2023-02-24T15:44:29;97631.31;;;11.08;47.42
43115;BME280;28727;50.068;14.452;2023-02-24T15:47:19;97632.34;;;11.07;47.50
43115;BME280;28727;50.068;14.452;2023-02-24T15:49:52;97638.22;;;11.09;47.74